sensor_id;sensor_type;location;lat;lon;timestamp;P1;durP1;ratioP1;P2;durP2;ratioP2
13122;SDS011;6627;50.920;12.050;2023-03-16T00:00:18;10.53;;;5.97;;
13122;SDS011;6627;50.920;12.050;2023-03-16T00:02:47;8.40;;;5.63;;
13122;SDS011;6627;50.920;12.050;2023-03-16T00:05:14;10.20;;;5.87;;
13122;SDS011;6627;50.920;12.050;2023-03-16T00:07:43;13.83;;;5.83;;
13122;SDS011;6627;50.920;12.050;2023-03-16T00:10:10;11.43;;;6.50;;
13122;SDS011;6627;50.920;12.050;2023-03-16T00:12:38;13.60;;;6.47;;
13122;SDS011;6627;50.920;12.050;2023-03-16T00:15:08;13.33;;;6.77;;
13122;SDS011;6627;50.920;12.050;2023-03-16T00:17:36;15.80;;;7.27;;
13122;SDS011;6627;50.920;12.050;2023-03-16T00:20:03;16.17;;;7.27;;
13122;SDS011;6627;50.920;12.050;2023-03-16T00:22:32;12.60;;;7.57;;
13122;SDS011;6627;50.920;12.050;2023-03-16T00:25:00;15.07;;;7.00;;
13122;SDS011;6627;50.920;12.050;2023-03-16T00:27:29;13.20;;;7.43;;
13122;SDS011;6627;50.920;12.050;2023-03-16T00:29:56;13.00;;;5.97;;
13122;SDS011;6627;50.920;12.050;2023-03-16T00:32:25;15.00;;;7.03;;
13122;SDS011;6627;50.920;12.050;2023-03-16T00:34:54;14.97;;;6.67;;
13122;SDS011;6627;50.920;12.050;2023-03-16T00:37:22;14.37;;;7.53;;
13122;SDS011;6627;50.920;12.050;2023-03-16T00:39:51;15.13;;;8.17;;
13122;SDS011;6627;50.920;12.050;2023-03-16T00:42:22;33.03;;;13.23;;
13122;SDS011;6627;50.920;12.050;2023-03-16T00:44:52;30.33;;;13.57;;
13122;SDS011;6627;50.920;12.050;2023-03-16T00:47:23;37.87;;;16.73;;
13122;SDS011;6627;50.920;12.050;2023-03-16T00:49:52;32.10;;;14.47;;
13122;SDS011;6627;50.920;12.050;2023-03-16T00:52:20;29.53;;;12.17;;
13122;SDS011;6627;50.920;12.050;2023-03-16T00:54:48;23.20;;;9.80;;
13122;SDS011;6627;50.920;12.050;2023-03-16T00:57:18;23.80;;;9.10;;
13122;SDS011;6627;50.920;12.050;2023-03-16T00:59:50;18.00;;;9.73;;
13122;SDS011;6627;50.920;12.050;2023-03-16T01:02:18;15.50;;;8.27;;
13122;SDS011;6627;50.920;12.050;2023-03-16T01:04:48;17.17;;;8.43;;
13122;SDS011;6627;50.920;12.050;2023-03-16T01:07:24;15.83;;;7.87;;
13122;SDS011;6627;50.920;12.050;2023-03-16T01:09:54;20.10;;;9.60;;
13122;SDS011;6627;50.920;12.050;2023-03-16T01:12:28;19.13;;;10.53;;
13122;SDS011;6627;50.920;12.050;2023-03-16T01:14:59;20.97;;;10.07;;
13122;SDS011;6627;50.920;12.050;2023-03-16T01:17:36;25.67;;;10.27;;
13122;SDS011;6627;50.920;12.050;2023-03-16T01:20:05;19.17;;;9.57;;
13122;SDS011;6627;50.920;12.050;2023-03-16T01:22:45;20.40;;;9.57;;
13122;SDS011;6627;50.920;12.050;2023-03-16T01:25:13;17.00;;;9.37;;
13122;SDS011;6627;50.920;12.050;2023-03-16T01:27:41;18.80;;;9.80;;
13122;SDS011;6627;50.920;12.050;2023-03-16T01:30:09;15.00;;;8.73;;
13122;SDS011;6627;50.920;12.050;2023-03-16T01:32:41;17.33;;;8.90;;
13122;SDS011;6627;50.920;12.050;2023-03-16T01:35:08;16.20;;;8.13;;
13122;SDS011;6627;50.920;12.050;2023-03-16T01:37:37;12.73;;;6.27;;
13122;SDS011;6627;50.920;12.050;2023-03-16T01:40:05;11.47;;;6.27;;
13122;SDS011;6627;50.920;12.050;2023-03-16T01:42:42;14.33;;;6.07;;
13122;SDS011;6627;50.920;12.050;2023-03-16T01:48:41;11.37;;;5.83;;
13122;SDS011;6627;50.920;12.050;2023-03-16T01:51:16;11.47;;;6.00;;
13122;SDS011;6627;50.920;12.050;2023-03-16T01:53:49;17.10;;;7.03;;
13122;SDS011;6627;50.920;12.050;2023-03-16T01:56:24;13.47;;;7.10;;
13122;SDS011;6627;50.920;12.050;2023-03-16T01:59:01;13.10;;;7.17;;
13122;SDS011;6627;50.920;12.050;2023-03-16T02:01:35;14.10;;;6.93;;
13122;SDS011;6627;50.920;12.050;2023-03-16T02:04:13;9.97;;;6.80;;
13122;SDS011;6627;50.920;12.050;2023-03-16T02:06:56;10.87;;;6.57;;
13122;SDS011;6627;50.920;12.050;2023-03-16T02:09:29;14.77;;;7.03;;
13122;SDS011;6627;50.920;12.050;2023-03-16T02:11:58;11.73;;;6.43;;
13122;SDS011;6627;50.920;12.050;2023-03-16T02:14:29;10.83;;;7.17;;
13122;SDS011;6627;50.920;12.050;2023-03-16T02:17:05;12.23;;;7.10;;
13122;SDS011;6627;50.920;12.050;2023-03-16T02:19:55;12.67;;;6.83;;
13122;SDS011;6627;50.920;12.050;2023-03-16T02:22:57;14.20;;;7.77;;
13122;SDS011;6627;50.920;12.050;2023-03-16T02:25:46;14.27;;;7.40;;
13122;SDS011;6627;50.920;12.050;2023-03-16T02:28:30;13.37;;;7.03;;
13122;SDS011;6627;50.920;12.050;2023-03-16T02:31:12;11.60;;;6.67;;
13122;SDS011;6627;50.920;12.050;2023-03-16T02:33:44;13.37;;;6.97;;
13122;SDS011;6627;50.920;12.050;2023-03-16T02:36:19;10.40;;;6.73;;
13122;SDS011;6627;50.920;12.050;2023-03-16T02:38:47;12.57;;;6.53;;
13122;SDS011;6627;50.920;12.050;2023-03-16T02:41:23;17.97;;;6.80;;
13122;SDS011;6627;50.920;12.050;2023-03-16T02:44:00;14.53;;;7.43;;
13122;SDS011;6627;50.920;12.050;2023-03-16T02:47:00;12.93;;;6.67;;
13122;SDS011;6627;50.920;12.050;2023-03-16T02:49:54;13.73;;;7.10;;
13122;SDS011;6627;50.920;12.050;2023-03-16T02:52:40;15.70;;;6.87;;
13122;SDS011;6627;50.920;12.050;2023-03-16T02:55:09;10.83;;;6.73;;
13122;SDS011;6627;50.920;12.050;2023-03-16T02:57:39;9.03;;;6.20;;
13122;SDS011;6627;50.920;12.050;2023-03-16T03:00:09;10.67;;;6.53;;
13122;SDS011;6627;50.920;12.050;2023-03-16T03:02:48;10.40;;;6.20;;
13122;SDS011;6627;50.920;12.050;2023-03-16T03:05:16;8.23;;;5.60;;
13122;SDS011;6627;50.920;12.050;2023-03-16T03:07:43;12.10;;;5.97;;
13122;SDS011;6627;50.920;12.050;2023-03-16T03:10:11;11.60;;;5.37;;
13122;SDS011;6627;50.920;12.050;2023-03-16T03:12:38;9.77;;;5.43;;
13122;SDS011;6627;50.920;12.050;2023-03-16T03:15:05;10.03;;;5.63;;
13122;SDS011;6627;50.920;12.050;2023-03-16T03:17:34;10.07;;;6.00;;
13122;SDS011;6627;50.920;12.050;2023-03-16T03:20:03;9.33;;;5.97;;
13122;SDS011;6627;50.920;12.050;2023-03-16T03:22:38;12.10;;;6.00;;
13122;SDS011;6627;50.920;12.050;2023-03-16T03:25:05;10.97;;;6.93;;
13122;SDS011;6627;50.920;12.050;2023-03-16T03:27:33;17.27;;;13.73;;
13122;SDS011;6627;50.920;12.050;2023-03-16T03:30:00;21.23;;;16.10;;
13122;SDS011;6627;50.920;12.050;2023-03-16T03:32:28;22.83;;;17.83;;
13122;SDS011;6627;50.920;12.050;2023-03-16T03:34:55;22.40;;;17.27;;
13122;SDS011;6627;50.920;12.050;2023-03-16T03:37:24;17.00;;;13.07;;
13122;SDS011;6627;50.920;12.050;2023-03-16T03:39:51;13.07;;;9.83;;
13122;SDS011;6627;50.920;12.050;2023-03-16T03:42:19;13.17;;;7.50;;
13122;SDS011;6627;50.920;12.050;2023-03-16T03:44:48;17.93;;;10.67;;
13122;SDS011;6627;50.920;12.050;2023-03-16T03:47:16;18.30;;;11.13;;
13122;SDS011;6627;50.920;12.050;2023-03-16T03:49:43;19.17;;;11.80;;
13122;SDS011;6627;50.920;12.050;2023-03-16T03:52:10;17.97;;;10.60;;
13122;SDS011;6627;50.920;12.050;2023-03-16T03:54:39;27.30;;;21.13;;
13122;SDS011;6627;50.920;12.050;2023-03-16T03:57:06;21.07;;;14.80;;
13122;SDS011;6627;50.920;12.050;2023-03-16T03:59:33;16.20;;;8.67;;
13122;SDS011;6627;50.920;12.050;2023-03-16T04:02:06;11.33;;;6.70;;
13122;SDS011;6627;50.920;12.050;2023-03-16T04:04:34;9.97;;;6.17;;
13122;SDS011;6627;50.920;12.050;2023-03-16T04:07:02;10.60;;;6.23;;
13122;SDS011;6627;50.920;12.050;2023-03-16T04:09:29;12.73;;;7.43;;
13122;SDS011;6627;50.920;12.050;2023-03-16T04:11:59;11.67;;;7.73;;
13122;SDS011;6627;50.920;12.050;2023-03-16T04:14:27;13.40;;;8.90;;
13122;SDS011;6627;50.920;12.050;2023-03-16T04:16:55;14.67;;;8.00;;
13122;SDS011;6627;50.920;12.050;2023-03-16T04:19:23;12.63;;;7.17;;
13122;SDS011;6627;50.920;12.050;2023-03-16T04:21:51;14.70;;;6.70;;
13122;SDS011;6627;50.920;12.050;2023-03-16T04:24:18;11.00;;;6.30;;
13122;SDS011;6627;50.920;12.050;2023-03-16T04:26:47;9.93;;;6.60;;
13122;SDS011;6627;50.920;12.050;2023-03-16T04:29:15;14.43;;;7.03;;
13122;SDS011;6627;50.920;12.050;2023-03-16T04:31:44;11.07;;;6.70;;
13122;SDS011;6627;50.920;12.050;2023-03-16T04:34:12;11.70;;;6.40;;
13122;SDS011;6627;50.920;12.050;2023-03-16T04:36:39;15.50;;;7.27;;
13122;SDS011;6627;50.920;12.050;2023-03-16T04:39:07;14.97;;;7.70;;
13122;SDS011;6627;50.920;12.050;2023-03-16T04:41:35;17.40;;;7.63;;
13122;SDS011;6627;50.920;12.050;2023-03-16T04:44:02;11.97;;;7.27;;
13122;SDS011;6627;50.920;12.050;2023-03-16T04:46:31;12.90;;;7.87;;
13122;SDS011;6627;50.920;12.050;2023-03-16T04:48:58;10.30;;;7.03;;
13122;SDS011;6627;50.920;12.050;2023-03-16T04:51:25;11.43;;;7.23;;
13122;SDS011;6627;50.920;12.050;2023-03-16T04:53:53;11.93;;;7.53;;
13122;SDS011;6627;50.920;12.050;2023-03-16T04:56:20;12.57;;;7.67;;
13122;SDS011;6627;50.920;12.050;2023-03-16T04:58:48;13.33;;;7.10;;
13122;SDS011;6627;50.920;12.050;2023-03-16T05:01:16;13.27;;;7.80;;
13122;SDS011;6627;50.920;12.050;2023-03-16T05:03:45;12.53;;;7.27;;
13122;SDS011;6627;50.920;12.050;2023-03-16T05:06:14;12.53;;;7.83;;
13122;SDS011;6627;50.920;12.050;2023-03-16T05:08:41;14.93;;;7.57;;
13122;SDS011;6627;50.920;12.050;2023-03-16T05:11:08;13.13;;;7.93;;
13122;SDS011;6627;50.920;12.050;2023-03-16T05:13:36;14.57;;;8.13;;
13122;SDS011;6627;50.920;12.050;2023-03-16T05:16:03;11.20;;;7.97;;
13122;SDS011;6627;50.920;12.050;2023-03-16T05:18:31;13.67;;;8.03;;
13122;SDS011;6627;50.920;12.050;2023-03-16T05:21:00;12.97;;;8.83;;
13122;SDS011;6627;50.920;12.050;2023-03-16T05:23:27;15.33;;;8.13;;
13122;SDS011;6627;50.920;12.050;2023-03-16T05:25:54;12.03;;;8.10;;
13122;SDS011;6627;50.920;12.050;2023-03-16T05:28:24;12.43;;;8.13;;
13122;SDS011;6627;50.920;12.050;2023-03-16T05:30:51;14.07;;;8.33;;
13122;SDS011;6627;50.920;12.050;2023-03-16T05:33:18;14.93;;;8.70;;
13122;SDS011;6627;50.920;12.050;2023-03-16T05:35:46;11.17;;;8.33;;
13122;SDS011;6627;50.920;12.050;2023-03-16T05:38:14;13.57;;;8.67;;
13122;SDS011;6627;50.920;12.050;2023-03-16T05:40:41;14.40;;;9.37;;
13122;SDS011;6627;50.920;12.050;2023-03-16T05:43:09;14.97;;;8.90;;
13122;SDS011;6627;50.920;12.050;2023-03-16T05:45:36;18.27;;;9.23;;
13122;SDS011;6627;50.920;12.050;2023-03-16T05:48:03;13.53;;;9.53;;
13122;SDS011;6627;50.920;12.050;2023-03-16T05:50:31;14.40;;;8.67;;
13122;SDS011;6627;50.920;12.050;2023-03-16T05:52:58;13.73;;;8.43;;
13122;SDS011;6627;50.920;12.050;2023-03-16T05:55:27;16.93;;;10.00;;
13122;SDS011;6627;50.920;12.050;2023-03-16T05:57:54;16.60;;;9.37;;
13122;SDS011;6627;50.920;12.050;2023-03-16T06:00:22;13.87;;;9.20;;
13122;SDS011;6627;50.920;12.050;2023-03-16T06:02:52;16.07;;;9.07;;
13122;SDS011;6627;50.920;12.050;2023-03-16T06:05:19;13.80;;;8.53;;
13122;SDS011;6627;50.920;12.050;2023-03-16T06:07:48;14.33;;;8.43;;
13122;SDS011;6627;50.920;12.050;2023-03-16T06:10:18;14.57;;;9.10;;
13122;SDS011;6627;50.920;12.050;2023-03-16T06:12:48;14.03;;;8.30;;
13122;SDS011;6627;50.920;12.050;2023-03-16T06:15:15;15.37;;;9.20;;
13122;SDS011;6627;50.920;12.050;2023-03-16T06:17:45;16.47;;;9.50;;
13122;SDS011;6627;50.920;12.050;2023-03-16T06:20:13;17.67;;;9.60;;
13122;SDS011;6627;50.920;12.050;2023-03-16T06:22:42;11.53;;;8.67;;
13122;SDS011;6627;50.920;12.050;2023-03-16T06:25:10;16.70;;;8.67;;
13122;SDS011;6627;50.920;12.050;2023-03-16T06:27:40;19.67;;;9.03;;
13122;SDS011;6627;50.920;12.050;2023-03-16T06:30:10;19.03;;;9.73;;
13122;SDS011;6627;50.920;12.050;2023-03-16T06:32:39;18.83;;;9.47;;
13122;SDS011;6627;50.920;12.050;2023-03-16T06:35:08;14.40;;;8.17;;
13122;SDS011;6627;50.920;12.050;2023-03-16T06:37:35;15.10;;;9.33;;
13122;SDS011;6627;50.920;12.050;2023-03-16T06:40:03;13.50;;;8.30;;
13122;SDS011;6627;50.920;12.050;2023-03-16T06:42:32;17.13;;;9.17;;
13122;SDS011;6627;50.920;12.050;2023-03-16T06:44:59;15.30;;;8.53;;
13122;SDS011;6627;50.920;12.050;2023-03-16T06:47:27;16.57;;;9.10;;
13122;SDS011;6627;50.920;12.050;2023-03-16T06:49:56;13.70;;;8.40;;
13122;SDS011;6627;50.920;12.050;2023-03-16T06:52:23;14.23;;;8.10;;
13122;SDS011;6627;50.920;12.050;2023-03-16T06:54:50;14.10;;;9.07;;
13122;SDS011;6627;50.920;12.050;2023-03-16T06:57:19;15.60;;;8.30;;
13122;SDS011;6627;50.920;12.050;2023-03-16T06:59:46;11.97;;;7.63;;
13122;SDS011;6627;50.920;12.050;2023-03-16T07:02:13;11.23;;;7.90;;
13122;SDS011;6627;50.920;12.050;2023-03-16T07:04:42;12.23;;;7.87;;
13122;SDS011;6627;50.920;12.050;2023-03-16T07:07:10;16.90;;;8.13;;
13122;SDS011;6627;50.920;12.050;2023-03-16T07:09:37;12.07;;;7.03;;
13122;SDS011;6627;50.920;12.050;2023-03-16T07:12:05;12.67;;;7.50;;
13122;SDS011;6627;50.920;12.050;2023-03-16T07:14:32;13.13;;;7.53;;
13122;SDS011;6627;50.920;12.050;2023-03-16T07:17:00;11.63;;;7.80;;
13122;SDS011;6627;50.920;12.050;2023-03-16T07:19:27;14.60;;;7.30;;
13122;SDS011;6627;50.920;12.050;2023-03-16T07:21:55;10.90;;;6.47;;
13122;SDS011;6627;50.920;12.050;2023-03-16T07:24:22;10.03;;;6.47;;
13122;SDS011;6627;50.920;12.050;2023-03-16T07:26:50;18.23;;;7.67;;
13122;SDS011;6627;50.920;12.050;2023-03-16T07:29:17;11.37;;;6.97;;
13122;SDS011;6627;50.920;12.050;2023-03-16T07:31:45;14.00;;;6.77;;
13122;SDS011;6627;50.920;12.050;2023-03-16T07:34:12;12.83;;;6.63;;
13122;SDS011;6627;50.920;12.050;2023-03-16T07:36:39;11.73;;;7.00;;
13122;SDS011;6627;50.920;12.050;2023-03-16T07:39:08;16.93;;;6.60;;
13122;SDS011;6627;50.920;12.050;2023-03-16T07:41:38;9.90;;;6.67;;
13122;SDS011;6627;50.920;12.050;2023-03-16T07:44:06;11.87;;;6.20;;
13122;SDS011;6627;50.920;12.050;2023-03-16T07:46:33;10.87;;;6.33;;
13122;SDS011;6627;50.920;12.050;2023-03-16T07:49:00;12.47;;;6.33;;
13122;SDS011;6627;50.920;12.050;2023-03-16T07:51:27;9.83;;;6.13;;
13122;SDS011;6627;50.920;12.050;2023-03-16T07:53:55;14.30;;;6.50;;
13122;SDS011;6627;50.920;12.050;2023-03-16T07:56:24;10.13;;;6.53;;
13122;SDS011;6627;50.920;12.050;2023-03-16T07:58:52;14.23;;;6.23;;
13122;SDS011;6627;50.920;12.050;2023-03-16T08:01:19;11.10;;;6.63;;
13122;SDS011;6627;50.920;12.050;2023-03-16T08:03:47;11.13;;;6.20;;
13122;SDS011;6627;50.920;12.050;2023-03-16T08:06:15;12.57;;;6.10;;
13122;SDS011;6627;50.920;12.050;2023-03-16T08:08:47;9.13;;;6.07;;
13122;SDS011;6627;50.920;12.050;2023-03-16T08:11:14;9.23;;;5.77;;
13122;SDS011;6627;50.920;12.050;2023-03-16T08:13:49;8.23;;;5.57;;
13122;SDS011;6627;50.920;12.050;2023-03-16T08:16:19;9.47;;;5.80;;
13122;SDS011;6627;50.920;12.050;2023-03-16T08:18:47;9.47;;;5.80;;
13122;SDS011;6627;50.920;12.050;2023-03-16T08:21:17;9.50;;;5.43;;
13122;SDS011;6627;50.920;12.050;2023-03-16T08:23:46;11.77;;;5.67;;
13122;SDS011;6627;50.920;12.050;2023-03-16T08:26:15;11.67;;;5.90;;
13122;SDS011;6627;50.920;12.050;2023-03-16T08:28:51;10.83;;;5.67;;
13122;SDS011;6627;50.920;12.050;2023-03-16T08:31:19;13.10;;;5.63;;
13122;SDS011;6627;50.920;12.050;2023-03-16T08:33:47;7.23;;;5.30;;
13122;SDS011;6627;50.920;12.050;2023-03-16T08:36:16;8.70;;;5.30;;
13122;SDS011;6627;50.920;12.050;2023-03-16T08:38:47;9.57;;;5.40;;
13122;SDS011;6627;50.920;12.050;2023-03-16T08:41:19;9.13;;;5.43;;
13122;SDS011;6627;50.920;12.050;2023-03-16T08:43:48;9.97;;;5.40;;
13122;SDS011;6627;50.920;12.050;2023-03-16T08:46:17;14.63;;;5.93;;
13122;SDS011;6627;50.920;12.050;2023-03-16T08:48:45;9.73;;;4.73;;
13122;SDS011;6627;50.920;12.050;2023-03-16T08:51:13;10.97;;;5.00;;
13122;SDS011;6627;50.920;12.050;2023-03-16T08:53:40;9.47;;;4.97;;
13122;SDS011;6627;50.920;12.050;2023-03-16T08:56:09;10.70;;;4.93;;
13122;SDS011;6627;50.920;12.050;2023-03-16T08:58:39;10.70;;;5.47;;
13122;SDS011;6627;50.920;12.050;2023-03-16T09:01:11;6.47;;;4.80;;
13122;SDS011;6627;50.920;12.050;2023-03-16T09:03:42;7.20;;;4.50;;
13122;SDS011;6627;50.920;12.050;2023-03-16T09:06:10;8.50;;;5.07;;
13122;SDS011;6627;50.920;12.050;2023-03-16T09:08:41;9.63;;;4.37;;
13122;SDS011;6627;50.920;12.050;2023-03-16T09:11:10;11.30;;;4.47;;
13122;SDS011;6627;50.920;12.050;2023-03-16T09:13:40;12.47;;;5.67;;
13122;SDS011;6627;50.920;12.050;2023-03-16T09:16:09;8.47;;;4.80;;
13122;SDS011;6627;50.920;12.050;2023-03-16T09:18:39;7.97;;;4.77;;
13122;SDS011;6627;50.920;12.050;2023-03-16T09:21:08;6.70;;;4.30;;
13122;SDS011;6627;50.920;12.050;2023-03-16T09:23:37;6.90;;;3.70;;
13122;SDS011;6627;50.920;12.050;2023-03-16T09:26:07;6.40;;;3.77;;
13122;SDS011;6627;50.920;12.050;2023-03-16T09:28:37;5.30;;;3.10;;
13122;SDS011;6627;50.920;12.050;2023-03-16T09:31:06;4.77;;;3.00;;
13122;SDS011;6627;50.920;12.050;2023-03-16T09:33:42;6.53;;;2.67;;
13122;SDS011;6627;50.920;12.050;2023-03-16T09:36:10;6.27;;;3.20;;
13122;SDS011;6627;50.920;12.050;2023-03-16T09:38:39;4.53;;;2.43;;
13122;SDS011;6627;50.920;12.050;2023-03-16T09:41:08;3.90;;;2.20;;
13122;SDS011;6627;50.920;12.050;2023-03-16T09:43:51;6.07;;;2.53;;
13122;SDS011;6627;50.920;12.050;2023-03-16T09:46:32;7.40;;;2.53;;
13122;SDS011;6627;50.920;12.050;2023-03-16T09:49:05;5.50;;;2.20;;
13122;SDS011;6627;50.920;12.050;2023-03-16T09:51:37;4.80;;;2.17;;
13122;SDS011;6627;50.920;12.050;2023-03-16T09:54:16;6.20;;;2.63;;
13122;SDS011;6627;50.920;12.050;2023-03-16T09:56:55;4.10;;;1.80;;
13122;SDS011;6627;50.920;12.050;2023-03-16T09:59:25;6.40;;;1.93;;
13122;SDS011;6627;50.920;12.050;2023-03-16T10:01:59;2.47;;;1.50;;
13122;SDS011;6627;50.920;12.050;2023-03-16T10:05:08;3.53;;;1.43;;
13122;SDS011;6627;50.920;12.050;2023-03-16T10:07:41;3.30;;;1.27;;
13122;SDS011;6627;50.920;12.050;2023-03-16T10:10:26;3.00;;;1.73;;
13122;SDS011;6627;50.920;12.050;2023-03-16T10:13:21;5.37;;;1.87;;
13122;SDS011;6627;50.920;12.050;2023-03-16T10:16:02;3.13;;;1.57;;
13122;SDS011;6627;50.920;12.050;2023-03-16T10:18:38;3.67;;;1.57;;
13122;SDS011;6627;50.920;12.050;2023-03-16T10:21:12;4.00;;;1.93;;
13122;SDS011;6627;50.920;12.050;2023-03-16T10:23:42;3.83;;;2.00;;
13122;SDS011;6627;50.920;12.050;2023-03-16T10:26:12;6.47;;;2.43;;
13122;SDS011;6627;50.920;12.050;2023-03-16T10:28:43;6.07;;;2.47;;
13122;SDS011;6627;50.920;12.050;2023-03-16T10:31:11;4.13;;;1.73;;
13122;SDS011;6627;50.920;12.050;2023-03-16T10:33:41;3.27;;;1.80;;
13122;SDS011;6627;50.920;12.050;2023-03-16T10:36:15;3.37;;;1.60;;
13122;SDS011;6627;50.920;12.050;2023-03-16T10:38:52;3.27;;;2.00;;
13122;SDS011;6627;50.920;12.050;2023-03-16T10:41:26;7.13;;;2.50;;
13122;SDS011;6627;50.920;12.050;2023-03-16T10:43:58;6.53;;;2.50;;
13122;SDS011;6627;50.920;12.050;2023-03-16T10:46:36;4.77;;;2.20;;
13122;SDS011;6627;50.920;12.050;2023-03-16T10:49:18;8.63;;;2.37;;
13122;SDS011;6627;50.920;12.050;2023-03-16T10:51:52;5.33;;;1.87;;
13122;SDS011;6627;50.920;12.050;2023-03-16T10:54:26;4.93;;;2.03;;
13122;SDS011;6627;50.920;12.050;2023-03-16T10:57:00;5.23;;;2.10;;
13122;SDS011;6627;50.920;12.050;2023-03-16T10:59:39;4.80;;;1.50;;
13122;SDS011;6627;50.920;12.050;2023-03-16T11:02:17;3.23;;;1.60;;
13122;SDS011;6627;50.920;12.050;2023-03-16T11:04:48;6.97;;;2.10;;
13122;SDS011;6627;50.920;12.050;2023-03-16T11:07:17;3.23;;;1.77;;
13122;SDS011;6627;50.920;12.050;2023-03-16T11:09:49;7.03;;;1.83;;
13122;SDS011;6627;50.920;12.050;2023-03-16T11:12:22;3.30;;;1.80;;
13122;SDS011;6627;50.920;12.050;2023-03-16T11:14:53;4.63;;;2.10;;
13122;SDS011;6627;50.920;12.050;2023-03-16T11:17:23;4.20;;;1.87;;
13122;SDS011;6627;50.920;12.050;2023-03-16T11:20:01;3.73;;;2.17;;
13122;SDS011;6627;50.920;12.050;2023-03-16T11:22:40;4.63;;;2.00;;
13122;SDS011;6627;50.920;12.050;2023-03-16T11:25:12;6.70;;;2.50;;
13122;SDS011;6627;50.920;12.050;2023-03-16T11:27:47;3.10;;;2.03;;
13122;SDS011;6627;50.920;12.050;2023-03-16T11:30:33;3.80;;;2.13;;
13122;SDS011;6627;50.920;12.050;2023-03-16T11:33:06;5.00;;;1.90;;
13122;SDS011;6627;50.920;12.050;2023-03-16T11:35:37;5.07;;;2.40;;
13122;SDS011;6627;50.920;12.050;2023-03-16T11:38:16;7.00;;;1.90;;
13122;SDS011;6627;50.920;12.050;2023-03-16T11:40:51;4.07;;;2.00;;
13122;SDS011;6627;50.920;12.050;2023-03-16T11:43:31;4.33;;;2.17;;
13122;SDS011;6627;50.920;12.050;2023-03-16T11:46:16;4.70;;;2.20;;
13122;SDS011;6627;50.920;12.050;2023-03-16T11:48:51;2.93;;;1.80;;
13122;SDS011;6627;50.920;12.050;2023-03-16T11:51:34;2.97;;;2.00;;
13122;SDS011;6627;50.920;12.050;2023-03-16T11:54:27;5.13;;;1.80;;
13122;SDS011;6627;50.920;12.050;2023-03-16T11:57:20;5.30;;;2.17;;
13122;SDS011;6627;50.920;12.050;2023-03-16T12:00:07;4.93;;;2.10;;
13122;SDS011;6627;50.920;12.050;2023-03-16T12:02:53;5.20;;;2.47;;
13122;SDS011;6627;50.920;12.050;2023-03-16T12:05:55;3.40;;;2.10;;
13122;SDS011;6627;50.920;12.050;2023-03-16T12:08:35;5.80;;;2.17;;
13122;SDS011;6627;50.920;12.050;2023-03-16T12:11:24;2.97;;;2.00;;
13122;SDS011;6627;50.920;12.050;2023-03-16T12:14:04;6.47;;;2.40;;
13122;SDS011;6627;50.920;12.050;2023-03-16T12:16:44;5.03;;;1.97;;
13122;SDS011;6627;50.920;12.050;2023-03-16T12:19:20;5.67;;;2.67;;
13122;SDS011;6627;50.920;12.050;2023-03-16T12:22:01;4.00;;;2.40;;
13122;SDS011;6627;50.920;12.050;2023-03-16T12:24:41;6.20;;;1.93;;
13122;SDS011;6627;50.920;12.050;2023-03-16T12:27:14;5.70;;;2.07;;
13122;SDS011;6627;50.920;12.050;2023-03-16T12:29:52;3.87;;;1.87;;
13122;SDS011;6627;50.920;12.050;2023-03-16T12:32:39;3.63;;;2.10;;
13122;SDS011;6627;50.920;12.050;2023-03-16T12:35:23;4.27;;;1.80;;
13122;SDS011;6627;50.920;12.050;2023-03-16T12:38:09;4.10;;;2.30;;
13122;SDS011;6627;50.920;12.050;2023-03-16T12:40:56;9.17;;;2.00;;
13122;SDS011;6627;50.920;12.050;2023-03-16T12:43:43;5.73;;;2.13;;
13122;SDS011;6627;50.920;12.050;2023-03-16T12:46:28;5.77;;;2.10;;
13122;SDS011;6627;50.920;12.050;2023-03-16T12:49:07;5.40;;;2.37;;
13122;SDS011;6627;50.920;12.050;2023-03-16T12:51:35;6.27;;;2.00;;
13122;SDS011;6627;50.920;12.050;2023-03-16T12:54:07;4.37;;;2.20;;
13122;SDS011;6627;50.920;12.050;2023-03-16T12:56:46;7.07;;;2.00;;
13122;SDS011;6627;50.920;12.050;2023-03-16T12:59:17;4.63;;;2.00;;
13122;SDS011;6627;50.920;12.050;2023-03-16T13:01:48;4.40;;;1.80;;
13122;SDS011;6627;50.920;12.050;2023-03-16T13:04:19;4.03;;;1.60;;
13122;SDS011;6627;50.920;12.050;2023-03-16T13:06:59;3.57;;;1.90;;
13122;SDS011;6627;50.920;12.050;2023-03-16T13:09:30;2.27;;;1.60;;
13122;SDS011;6627;50.920;12.050;2023-03-16T13:12:01;4.07;;;1.90;;
13122;SDS011;6627;50.920;12.050;2023-03-16T13:14:33;7.60;;;1.80;;
13122;SDS011;6627;50.920;12.050;2023-03-16T13:17:05;4.73;;;2.03;;
13122;SDS011;6627;50.920;12.050;2023-03-16T13:19:59;6.07;;;1.67;;
13122;SDS011;6627;50.920;12.050;2023-03-16T13:22:40;4.73;;;2.10;;
13122;SDS011;6627;50.920;12.050;2023-03-16T13:25:12;6.37;;;2.60;;
13122;SDS011;6627;50.920;12.050;2023-03-16T13:27:47;4.17;;;2.17;;
13122;SDS011;6627;50.920;12.050;2023-03-16T13:30:20;3.47;;;1.90;;
13122;SDS011;6627;50.920;12.050;2023-03-16T13:32:52;3.70;;;2.20;;
13122;SDS011;6627;50.920;12.050;2023-03-16T13:35:24;6.97;;;2.67;;
13122;SDS011;6627;50.920;12.050;2023-03-16T13:37:54;5.03;;;2.30;;
13122;SDS011;6627;50.920;12.050;2023-03-16T13:40:31;5.10;;;1.90;;
13122;SDS011;6627;50.920;12.050;2023-03-16T13:43:00;3.93;;;1.90;;
13122;SDS011;6627;50.920;12.050;2023-03-16T13:45:32;4.13;;;1.90;;
13122;SDS011;6627;50.920;12.050;2023-03-16T13:48:03;5.80;;;2.00;;
13122;SDS011;6627;50.920;12.050;2023-03-16T13:50:30;4.90;;;2.13;;
13122;SDS011;6627;50.920;12.050;2023-03-16T13:53:01;5.33;;;2.10;;
13122;SDS011;6627;50.920;12.050;2023-03-16T13:55:35;3.60;;;1.83;;
13122;SDS011;6627;50.920;12.050;2023-03-16T13:58:12;3.63;;;1.80;;
13122;SDS011;6627;50.920;12.050;2023-03-16T14:00:53;5.13;;;1.90;;
13122;SDS011;6627;50.920;12.050;2023-03-16T14:03:22;5.53;;;2.13;;
13122;SDS011;6627;50.920;12.050;2023-03-16T14:05:58;3.13;;;1.77;;
13122;SDS011;6627;50.920;12.050;2023-03-16T14:08:26;3.50;;;1.87;;
13122;SDS011;6627;50.920;12.050;2023-03-16T14:10:55;3.63;;;1.57;;
13122;SDS011;6627;50.920;12.050;2023-03-16T14:13:29;5.53;;;2.00;;
13122;SDS011;6627;50.920;12.050;2023-03-16T14:16:05;5.50;;;2.17;;
13122;SDS011;6627;50.920;12.050;2023-03-16T14:18:41;4.27;;;2.00;;
13122;SDS011;6627;50.920;12.050;2023-03-16T14:21:13;7.47;;;2.10;;
13122;SDS011;6627;50.920;12.050;2023-03-16T14:23:46;3.07;;;1.77;;
13122;SDS011;6627;50.920;12.050;2023-03-16T14:26:18;5.53;;;2.33;;
13122;SDS011;6627;50.920;12.050;2023-03-16T14:28:53;2.03;;;1.73;;
13122;SDS011;6627;50.920;12.050;2023-03-16T14:31:32;3.63;;;1.90;;
13122;SDS011;6627;50.920;12.050;2023-03-16T14:34:03;6.97;;;2.60;;
13122;SDS011;6627;50.920;12.050;2023-03-16T14:36:35;3.77;;;1.97;;
13122;SDS011;6627;50.920;12.050;2023-03-16T14:39:11;3.57;;;2.20;;
13122;SDS011;6627;50.920;12.050;2023-03-16T14:41:41;3.27;;;1.90;;
13122;SDS011;6627;50.920;12.050;2023-03-16T14:44:16;4.10;;;2.00;;
13122;SDS011;6627;50.920;12.050;2023-03-16T14:46:50;4.33;;;2.20;;
13122;SDS011;6627;50.920;12.050;2023-03-16T14:49:21;6.60;;;2.50;;
13122;SDS011;6627;50.920;12.050;2023-03-16T14:51:54;5.33;;;2.10;;
13122;SDS011;6627;50.920;12.050;2023-03-16T14:54:27;3.67;;;2.10;;
13122;SDS011;6627;50.920;12.050;2023-03-16T14:56:57;3.23;;;2.20;;
13122;SDS011;6627;50.920;12.050;2023-03-16T14:59:27;5.93;;;2.33;;
13122;SDS011;6627;50.920;12.050;2023-03-16T15:01:56;3.87;;;2.03;;
13122;SDS011;6627;50.920;12.050;2023-03-16T15:04:25;6.87;;;2.60;;
13122;SDS011;6627;50.920;12.050;2023-03-16T15:06:57;4.40;;;2.27;;
13122;SDS011;6627;50.920;12.050;2023-03-16T15:09:28;3.60;;;2.10;;
13122;SDS011;6627;50.920;12.050;2023-03-16T15:12:01;3.67;;;2.37;;